createdAt,value
2019-03-06T00:04:36.957Z,2.13
2019-03-06T00:07:19.391Z,2.00
2019-03-06T00:10:01.757Z,2.17
2019-03-06T00:12:43.930Z,2.40
2019-03-06T00:15:25.833Z,2.03
2019-03-06T00:18:08.418Z,2.23
2019-03-06T00:20:50.931Z,2.00
2019-03-06T00:23:33.059Z,2.20
2019-03-06T00:26:15.069Z,2.83
2019-03-06T00:28:57.255Z,2.37
2019-03-06T00:31:39.215Z,4.43
2019-03-06T00:34:21.417Z,2.47
2019-03-06T00:37:03.319Z,2.70
2019-03-06T00:43:01.090Z,2.20
2019-03-06T00:45:43.541Z,3.20
2019-03-06T00:48:25.799Z,3.07
2019-03-06T00:51:08.110Z,4.47
2019-03-06T00:53:51.515Z,2.83
2019-03-06T00:56:33.320Z,2.70
2019-03-06T00:59:15.390Z,3.67
2019-03-06T01:01:57.796Z,3.60
2019-03-06T01:04:39.931Z,3.80
2019-03-06T01:07:22.263Z,3.23
2019-03-06T01:10:04.407Z,5.57
2019-03-06T01:12:46.405Z,2.80
2019-03-06T01:15:29.004Z,3.70
2019-03-06T01:18:10.970Z,3.47
2019-03-06T01:20:53.394Z,3.93
2019-03-06T01:23:36.052Z,3.23
2019-03-06T01:26:18.432Z,2.90
2019-03-06T01:29:00.813Z,3.13
2019-03-06T01:31:42.876Z,3.53
2019-03-06T01:37:52.871Z,3.60
2019-03-06T01:41:10.205Z,2.97
2019-03-06T01:44:16.489Z,3.50
2019-03-06T01:46:58.865Z,3.47
2019-03-06T01:49:41.476Z,3.20
2019-03-06T01:52:23.607Z,2.83
2019-03-06T01:55:06.030Z,3.67
2019-03-06T01:57:48.359Z,3.60
2019-03-06T02:00:30.977Z,4.23
2019-03-06T02:03:13.474Z,3.83
2019-03-06T02:05:54.254Z,3.90
2019-03-06T02:08:43.858Z,3.33
2019-03-06T02:11:33.623Z,3.40
2019-03-06T02:14:37.788Z,2.93
2019-03-06T02:17:34.217Z,2.90
2019-03-06T02:20:23.852Z,3.20
2019-03-06T02:23:13.560Z,2.97
2019-03-06T02:26:03.139Z,3.27
2019-03-06T02:28:52.794Z,3.33
2019-03-06T02:31:42.485Z,3.33
2019-03-06T02:34:32.106Z,3.10
2019-03-06T02:40:28.270Z,3.80
2019-03-06T02:43:10.491Z,4.90
2019-03-06T02:45:52.423Z,4.30
2019-03-06T02:48:35.119Z,3.80
2019-03-06T02:51:17.387Z,4.73
2019-03-06T02:53:59.515Z,5.50
2019-03-06T02:56:42.007Z,4.50
2019-03-06T03:03:10.363Z,3.57
2019-03-06T03:05:58.957Z,3.90
2019-03-06T03:09:00.688Z,3.87
2019-03-06T03:18:36.030Z,3.40
2019-03-06T03:21:27.100Z,3.67
2019-03-06T03:24:36.842Z,3.53
2019-03-06T03:27:26.434Z,3.07
2019-03-06T03:30:09.104Z,3.50
2019-03-06T03:32:50.880Z,3.30
2019-03-06T03:35:33.160Z,2.83
2019-03-06T03:38:15.506Z,5.00
2019-03-06T03:40:57.778Z,4.70
2019-03-06T03:43:40.223Z,5.00
2019-03-06T03:46:22.201Z,4.90
2019-03-06T03:49:04.167Z,4.17
2019-03-06T03:51:46.509Z,4.10
2019-03-06T03:54:28.368Z,3.27
2019-03-06T03:57:10.632Z,4.77
2019-03-06T03:59:55.568Z,3.87
2019-03-06T04:02:36.707Z,4.30
2019-03-06T04:05:18.574Z,3.77
2019-03-06T04:08:00.616Z,3.60
2019-03-06T04:10:42.952Z,3.40
2019-03-06T04:13:25.574Z,3.70
2019-03-06T04:16:07.869Z,3.27
2019-03-06T04:18:49.853Z,3.43
2019-03-06T04:21:32.011Z,3.40
2019-03-06T04:24:14.410Z,3.83
2019-03-06T04:26:56.735Z,3.93
2019-03-06T04:29:39.012Z,3.70
2019-03-06T04:32:21.379Z,3.87
2019-03-06T04:35:03.602Z,3.97
2019-03-06T04:37:46.155Z,4.30
2019-03-06T04:40:28.489Z,5.47
2019-03-06T04:43:10.521Z,3.90
2019-03-06T04:45:52.458Z,4.60
2019-03-06T04:48:34.983Z,5.13
2019-03-06T04:51:16.939Z,4.43
2019-03-06T04:53:59.315Z,5.10
2019-03-06T04:56:41.186Z,5.20
2019-03-06T04:59:23.026Z,5.47
2019-03-06T05:02:05.650Z,4.80
2019-03-06T05:04:48.027Z,4.60
2019-03-06T05:07:30.455Z,4.73
2019-03-06T05:10:12.701Z,4.53
2019-03-06T05:12:54.477Z,4.47
2019-03-06T05:15:36.600Z,4.77
2019-03-06T05:18:24.721Z,4.63
2019-03-06T05:21:06.913Z,4.80
2019-03-06T05:23:48.780Z,4.70
2019-03-06T05:26:31.306Z,4.10
2019-03-06T05:29:13.706Z,4.43
2019-03-06T05:31:55.939Z,5.07
2019-03-06T05:34:37.855Z,4.50
2019-03-06T05:37:20.422Z,4.20
2019-03-06T05:40:02.454Z,4.13
2019-03-06T05:42:44.474Z,4.33
2019-03-06T05:45:26.398Z,4.57
2019-03-06T05:48:08.662Z,4.47
2019-03-06T05:50:51.149Z,3.80
2019-03-06T05:53:33.376Z,3.90
2019-03-06T05:56:15.685Z,3.80
2019-03-06T05:58:56.782Z,4.40
2019-03-06T06:05:02.096Z,4.47
2019-03-06T06:07:51.680Z,4.50
2019-03-06T06:17:12.819Z,4.53
2019-03-06T06:20:16.635Z,4.40
2019-03-06T06:23:34.313Z,4.10
2019-03-06T06:26:24.263Z,5.33
2019-03-06T06:32:29.597Z,5.00
2019-03-06T06:35:38.659Z,5.20
2019-03-06T06:38:28.305Z,5.43
2019-03-06T06:41:17.986Z,4.70
2019-03-06T06:44:22.035Z,4.97
2019-03-06T06:47:18.319Z,4.73
2019-03-06T06:50:20.230Z,5.00
2019-03-06T06:57:13.230Z,5.50
2019-03-06T07:04:03.016Z,5.30
2019-03-06T07:07:11.586Z,5.40
2019-03-06T07:10:20.086Z,5.80
2019-03-06T07:13:28.645Z,5.70
2019-03-06T07:16:58.251Z,5.20
2019-03-06T07:20:06.772Z,5.50
2019-03-06T07:22:53.498Z,6.70
2019-03-06T07:26:01.170Z,5.83
2019-03-06T07:28:55.795Z,6.17
2019-03-06T07:35:35.349Z,5.07
2019-03-06T07:38:26.983Z,5.80
2019-03-06T07:41:27.989Z,4.83
2019-03-06T07:44:30.386Z,5.10
2019-03-06T07:47:37.899Z,4.90
2019-03-06T07:50:32.799Z,5.30
2019-03-06T07:53:39.747Z,5.60
2019-03-06T07:56:54.318Z,5.57
2019-03-06T07:59:46.474Z,5.83
2019-03-06T08:02:28.459Z,5.93
2019-03-06T08:05:10.707Z,5.70
2019-03-06T08:07:52.990Z,5.77
2019-03-06T08:10:37.002Z,5.50
2019-03-06T08:16:31.777Z,5.60
2019-03-06T08:19:40.339Z,5.90
2019-03-06T08:23:09.938Z,6.13
2019-03-06T08:25:59.530Z,6.53
2019-03-06T08:28:49.358Z,5.70
2019-03-06T08:31:57.826Z,6.53
2019-03-06T08:34:47.471Z,5.50
2019-03-06T08:47:39.934Z,5.87
2019-03-06T08:50:48.403Z,6.10
2019-03-06T08:53:45.664Z,5.80
2019-03-06T08:56:54.186Z,5.27
2019-03-06T09:00:04.691Z,4.57
2019-03-06T09:03:32.208Z,4.83
2019-03-06T09:06:40.719Z,4.63
2019-03-06T09:09:49.203Z,4.50
2019-03-06T09:12:57.775Z,4.60
2019-03-06T09:16:06.268Z,5.00
2019-03-06T09:19:14.818Z,5.30
2019-03-06T09:22:23.563Z,4.50
2019-03-06T09:25:24.415Z,5.03
2019-03-06T09:28:43.494Z,5.33
2019-03-06T09:31:40.751Z,5.17
2019-03-06T09:34:41.938Z,5.47
2019-03-06T09:37:36.893Z,5.23
2019-03-06T09:40:26.066Z,5.67
2019-03-06T09:43:22.849Z,6.33
2019-03-06T09:46:23.910Z,5.30
2019-03-06T09:49:14.934Z,6.07
2019-03-06T09:52:15.751Z,5.40
2019-03-06T09:55:20.306Z,5.77
2019-03-06T09:58:21.210Z,4.90
2019-03-06T10:01:28.395Z,5.50
2019-03-06T10:04:23.896Z,6.57
2019-03-06T10:07:24.653Z,5.30
2019-03-06T10:10:26.091Z,6.30
2019-03-06T10:13:18.982Z,6.77
2019-03-06T10:16:23.234Z,7.47
2019-03-06T10:19:17.809Z,6.80
2019-03-06T10:22:00.127Z,7.60
2019-03-06T10:24:42.495Z,7.13
2019-03-06T10:27:24.725Z,7.83
2019-03-06T10:30:07.442Z,7.73
2019-03-06T10:32:50.079Z,7.73
2019-03-06T10:35:32.173Z,8.10
2019-03-06T10:38:16.810Z,8.33
2019-03-06T10:40:57.952Z,7.90
2019-03-06T10:43:46.379Z,7.27
2019-03-06T10:46:23.935Z,7.70
2019-03-06T10:49:06.554Z,7.20
2019-03-06T10:51:48.997Z,7.20
2019-03-06T10:54:31.236Z,6.70
2019-03-06T10:57:13.349Z,7.43
2019-03-06T10:59:56.293Z,7.40
2019-03-06T11:02:38.732Z,7.23
2019-03-06T11:05:43.435Z,7.50
2019-03-06T11:08:35.152Z,7.83
2019-03-06T11:11:17.740Z,6.67
2019-03-06T11:14:05.984Z,7.50
2019-03-06T11:16:43.034Z,7.57
2019-03-06T11:19:25.383Z,7.37
2019-03-06T11:22:07.433Z,6.83
2019-03-06T11:24:49.543Z,7.50
2019-03-06T11:27:31.807Z,6.27
2019-03-06T11:30:14.150Z,7.77
2019-03-06T11:32:57.056Z,7.63
2019-03-06T11:35:40.002Z,7.07
2019-03-06T11:38:22.257Z,6.80
2019-03-06T11:41:05.253Z,6.13
2019-03-06T11:43:47.075Z,6.63
2019-03-06T11:46:29.204Z,6.30
2019-03-06T11:49:11.373Z,6.60
2019-03-06T11:51:53.696Z,6.83
2019-03-06T11:54:35.551Z,5.63
2019-03-06T11:57:17.896Z,6.10
2019-03-06T12:00:00.564Z,6.33
2019-03-06T12:02:43.091Z,6.77
2019-03-06T12:05:25.496Z,5.67
2019-03-06T12:08:07.406Z,5.93
2019-03-06T12:10:48.233Z,7.10
2019-03-06T12:13:37.863Z,7.07
2019-03-06T12:20:08.171Z,5.80
2019-03-06T12:23:15.403Z,6.13
2019-03-06T12:26:05.167Z,6.43
2019-03-06T12:28:54.801Z,6.70
2019-03-06T12:37:59.397Z,5.13
2019-03-06T12:44:10.360Z,5.73
2019-03-06T12:47:15.803Z,5.67
2019-03-06T12:50:06.297Z,4.60
2019-03-06T12:53:16.803Z,4.70
2019-03-06T13:05:46.003Z,4.30
2019-03-06T13:08:50.834Z,3.60
2019-03-06T13:11:46.350Z,3.20
2019-03-06T13:24:39.531Z,2.23
2019-03-06T13:27:22.055Z,2.50
2019-03-06T13:30:03.949Z,2.13
2019-03-06T13:36:21.509Z,2.87
2019-03-06T13:39:06.519Z,3.90
2019-03-06T13:41:49.251Z,10.00
2019-03-06T13:44:31.928Z,2.50
2019-03-06T13:47:13.919Z,2.53
2019-03-06T13:49:56.441Z,2.73
2019-03-06T13:52:38.533Z,2.10
2019-03-06T13:55:21.646Z,2.87
2019-03-06T13:58:04.561Z,1.50
2019-03-06T14:00:46.985Z,2.93
2019-03-06T14:03:29.119Z,2.07
2019-03-06T14:06:11.894Z,1.80
2019-03-06T14:08:54.091Z,1.57
2019-03-06T14:11:36.343Z,3.23
2019-03-06T14:14:18.265Z,1.50
2019-03-06T14:17:00.589Z,1.40
2019-03-06T14:19:42.729Z,3.03
2019-03-06T14:22:25.359Z,1.50
2019-03-06T14:25:07.784Z,1.77
2019-03-06T14:27:49.890Z,1.33
2019-03-06T14:30:32.083Z,4.80
2019-03-06T14:33:14.070Z,2.30
2019-03-06T14:35:56.971Z,1.70
2019-03-06T14:38:44.208Z,1.73
2019-03-06T14:45:03.775Z,1.53
2019-03-06T14:48:00.269Z,1.20
2019-03-06T14:50:50.246Z,1.63
2019-03-06T14:53:40.259Z,1.30
2019-03-06T14:59:59.387Z,1.60
2019-03-06T15:02:49.434Z,2.00
2019-03-06T15:05:46.798Z,1.57
2019-03-06T15:08:49.812Z,1.70
2019-03-06T15:12:00.497Z,1.40
2019-03-06T15:14:50.129Z,1.57
2019-03-06T15:17:39.742Z,1.97
2019-03-06T15:20:43.857Z,1.57
2019-03-06T15:23:32.637Z,1.37
2019-03-06T15:26:15.310Z,1.20
2019-03-06T15:28:57.640Z,1.80
2019-03-06T15:31:40.114Z,2.10
2019-03-06T15:34:22.417Z,2.30
2019-03-06T15:37:04.838Z,1.43
2019-03-06T15:39:48.804Z,1.50
2019-03-06T15:42:31.043Z,2.80
2019-03-06T15:45:13.162Z,1.93
2019-03-06T15:47:55.710Z,1.97
2019-03-06T15:50:37.846Z,1.60
2019-03-06T15:53:24.373Z,1.70
2019-03-06T15:56:04.213Z,1.70
2019-03-06T15:58:47.255Z,1.97
2019-03-06T16:01:29.031Z,3.27
2019-03-06T16:04:11.063Z,1.80
2019-03-06T16:06:54.218Z,1.60
2019-03-06T16:09:36.113Z,2.33
2019-03-06T16:12:18.182Z,1.73
2019-03-06T16:15:00.826Z,1.50
2019-03-06T16:17:43.042Z,3.73
2019-03-06T16:20:25.226Z,3.43
2019-03-06T16:23:07.602Z,1.40
2019-03-06T16:25:50.042Z,1.40
2019-03-06T16:28:32.094Z,1.60
2019-03-06T16:31:14.257Z,1.57
2019-03-06T16:33:56.499Z,2.47
2019-03-06T16:36:39.211Z,1.60
2019-03-06T16:39:21.282Z,1.80
2019-03-06T16:42:04.632Z,1.90
2019-03-06T16:44:47.338Z,3.20
2019-03-06T16:47:29.533Z,2.40
2019-03-06T16:52:54.710Z,4.07
2019-03-06T16:55:37.577Z,3.43
2019-03-06T16:58:19.611Z,3.37
2019-03-06T17:01:01.670Z,6.97
2019-03-06T17:03:44.037Z,2.83
2019-03-06T17:06:26.508Z,4.47
2019-03-06T17:09:08.323Z,4.03
2019-03-06T17:11:50.254Z,4.10
2019-03-06T17:14:32.102Z,5.47
2019-03-06T17:17:14.191Z,5.23
2019-03-06T17:19:56.422Z,5.20
2019-03-06T17:22:38.554Z,6.13
2019-03-06T17:25:20.910Z,4.53
2019-03-06T17:28:02.997Z,3.63
2019-03-06T17:30:45.662Z,4.17
2019-03-06T17:33:28.027Z,5.03
2019-03-06T17:36:10.538Z,4.23
2019-03-06T17:38:52.914Z,3.93
2019-03-06T17:41:35.349Z,3.67
2019-03-06T17:44:17.659Z,8.03
2019-03-06T17:46:59.675Z,14.23
2019-03-06T17:49:42.156Z,8.60
2019-03-06T17:52:24.194Z,5.77
2019-03-06T17:55:06.892Z,3.60
2019-03-06T17:57:49.375Z,2.73
2019-03-06T18:00:37.675Z,3.70
2019-03-06T18:03:25.006Z,3.03
2019-03-06T18:06:06.797Z,2.87
2019-03-06T18:08:49.071Z,2.97
2019-03-06T18:11:31.293Z,3.83
2019-03-06T18:14:13.604Z,3.17
2019-03-06T18:16:55.925Z,3.93
2019-03-06T18:19:38.490Z,4.80
2019-03-06T18:22:21.087Z,6.90
2019-03-06T18:25:03.255Z,7.50
2019-03-06T18:27:45.461Z,6.00
2019-03-06T18:30:27.727Z,4.27
2019-03-06T18:33:09.883Z,4.60
2019-03-06T18:35:51.787Z,4.80
2019-03-06T18:38:33.813Z,4.33
2019-03-06T18:41:15.703Z,4.23
2019-03-06T18:43:58.130Z,4.03
2019-03-06T18:46:40.605Z,3.63
2019-03-06T18:49:22.391Z,4.43
2019-03-06T18:52:04.876Z,4.77
2019-03-06T18:54:47.265Z,4.20
2019-03-06T18:57:29.553Z,5.20
2019-03-06T19:00:11.618Z,5.97
2019-03-06T19:02:53.435Z,5.23
2019-03-06T19:05:36.969Z,7.43
2019-03-06T19:08:19.128Z,6.17
2019-03-06T19:11:01.193Z,7.10
2019-03-06T19:13:43.161Z,8.23
2019-03-06T19:16:25.126Z,8.50
2019-03-06T19:19:06.975Z,8.90
2019-03-06T19:21:49.163Z,9.13
2019-03-06T19:24:31.465Z,9.60
2019-03-06T19:27:13.613Z,10.47
2019-03-06T19:29:55.700Z,10.67
2019-03-06T19:32:38.014Z,9.27
2019-03-06T19:35:20.367Z,9.10
2019-03-06T19:38:02.450Z,9.10
2019-03-06T19:40:45.072Z,9.03
2019-03-06T19:43:27.759Z,10.60
2019-03-06T19:46:10.547Z,9.17
2019-03-06T19:48:52.626Z,9.57
2019-03-06T19:51:34.586Z,8.97
2019-03-06T19:54:17.026Z,10.13
2019-03-06T19:56:59.416Z,8.67
2019-03-06T19:59:42.634Z,8.50
2019-03-06T20:02:25.167Z,8.27
2019-03-06T20:05:07.904Z,7.73
2019-03-06T20:07:50.386Z,8.60
2019-03-06T20:10:33.020Z,7.87
2019-03-06T20:13:14.902Z,8.33
2019-03-06T20:15:56.828Z,8.63
2019-03-06T20:18:38.046Z,8.53
2019-03-06T20:21:27.655Z,8.60
2019-03-06T20:24:17.282Z,8.20
2019-03-06T20:27:21.130Z,9.83
2019-03-06T20:33:52.674Z,9.23
2019-03-06T20:36:42.313Z,8.47
2019-03-06T20:39:32.030Z,7.80
2019-03-06T20:42:21.634Z,7.10
2019-03-06T20:45:25.454Z,7.33
2019-03-06T20:48:07.970Z,9.70
2019-03-06T20:50:50.830Z,7.47
2019-03-06T20:53:32.991Z,7.40
2019-03-06T20:56:15.574Z,6.00
2019-03-06T20:58:57.870Z,5.97
2019-03-06T21:01:40.102Z,6.27
2019-03-06T21:04:22.242Z,5.53
2019-03-06T21:07:04.819Z,7.20
2019-03-06T21:09:47.101Z,6.20
2019-03-06T21:12:29.650Z,8.93
2019-03-06T21:15:11.387Z,8.90
2019-03-06T21:17:54.094Z,7.13
2019-03-06T21:20:36.581Z,7.60
2019-03-06T21:23:19.074Z,10.20
2019-03-06T21:26:01.124Z,8.47
2019-03-06T21:28:43.064Z,7.83
2019-03-06T21:31:25.726Z,8.07
2019-03-06T21:34:08.866Z,8.17
2019-03-06T21:36:50.942Z,8.13
2019-03-06T21:39:33.206Z,7.40
2019-03-06T21:42:15.915Z,7.60
2019-03-06T21:44:57.931Z,8.50
2019-03-06T21:47:40.697Z,9.10
2019-03-06T21:50:22.929Z,7.87
2019-03-06T21:53:05.340Z,8.67
2019-03-06T21:55:48.318Z,8.47
2019-03-06T21:58:30.603Z,8.60
2019-03-06T22:01:12.674Z,8.50
2019-03-06T22:03:54.887Z,8.23
2019-03-06T22:06:37.236Z,6.47
2019-03-06T22:09:19.524Z,7.50
2019-03-06T22:12:01.627Z,8.87
2019-03-06T22:14:43.735Z,6.93
2019-03-06T22:17:25.695Z,9.50
2019-03-06T22:20:07.835Z,7.00
2019-03-06T22:22:49.968Z,7.27
2019-03-06T22:25:32.296Z,6.97
2019-03-06T22:28:14.355Z,6.90
2019-03-06T22:30:56.453Z,7.40
2019-03-06T22:33:27.247Z,7.57
2019-03-06T22:35:57.850Z,10.30
2019-03-06T22:38:30.184Z,9.00
2019-03-06T22:41:02.675Z,9.03
2019-03-06T22:43:33.298Z,9.40
2019-03-06T22:46:04.435Z,8.27
2019-03-06T22:48:54.261Z,9.43
2019-03-06T22:51:25.521Z,8.13
2019-03-06T22:53:56.579Z,7.80
2019-03-06T22:56:28.311Z,8.30
2019-03-06T22:58:58.905Z,7.20
2019-03-06T23:01:34.901Z,6.33
2019-03-06T23:04:05.907Z,7.00
2019-03-06T23:06:38.203Z,6.63
2019-03-06T23:09:11.197Z,7.63
2019-03-06T23:11:42.226Z,6.33
2019-03-06T23:14:13.040Z,8.00
2019-03-06T23:16:44.117Z,6.93
2019-03-06T23:19:14.956Z,8.47
2019-03-06T23:21:45.774Z,7.10
2019-03-06T23:24:16.621Z,8.43
2019-03-06T23:26:47.315Z,7.33
2019-03-06T23:29:18.094Z,7.20
2019-03-06T23:31:50.428Z,7.03
2019-03-06T23:34:21.134Z,7.77
2019-03-06T23:36:51.813Z,6.07
2019-03-06T23:39:22.717Z,7.43
2019-03-06T23:41:58.000Z,7.30
2019-03-06T23:44:29.856Z,7.00
2019-03-06T23:47:00.894Z,7.50
2019-03-06T23:49:31.779Z,7.83
2019-03-06T23:52:19.450Z,6.90
2019-03-06T23:54:50.392Z,6.77
2019-03-06T23:57:21.361Z,7.67
2019-03-06T23:59:52.147Z,7.77
